Details From YMEN - Essendon
To YMER - Merimbula
Flight Number -
Tags decoded
Created
Modified
Stats Distance 266 nm / 493 km
Max Altitude 0 ft / 0 m
Waypoints 9
Social Downloads 0
Likes 0
Share

Download

Looking for another format? Having issues loading an existing format? Contact us
Advertisement - Login to hide

Notes

Requested: YMEN ESDAN W382 MB W449 BRONS W695 ESL W297 MER YMER

Route

YMEN ESDAN W382 MB W449 BRONS W695 ESL W297 MER YMER

ID Type Via Altitude (ft/m) Position (lat/lon) Dist (leg/tot) Name
O YMEN APT - 0 / 0 -37.72910 / 144.90200 - / 0 nm Essendon
ESDAN FIX - 0 / 0 -37.72670 / 144.91100 0 / 0 nm
MB NDB W382 (AWY-LO) 0 / 0 -37.97640 / 145.09000 17 / 17 nm MOORABBIN (MELBOURNE)
WAREN FIX W449 (AWY-LO) 0 / 0 -38.01670 / 145.31200 10 / 28 nm
BRONS FIX W449 (AWY-LO) 0 / 0 -38.15330 / 146.10200 38 / 66 nm
ESL NDB W695 (AWY-LO) 0 / 0 -38.11140 / 147.15900 49 / 116 nm EAST SALE
GIPPS FIX W297 (AWY-LO) 0 / 0 -37.71000 / 148.08500 50 / 166 nm
MER NDB W297 (AWY-LO) 0 / 0 -36.91420 / 149.89900 98 / 265 nm MERIMBULA
O YMER APT - 0 / 0 -36.90860 / 149.90100 0 / 266 nm Merimbula

Altitude Profile

Advertisement - Login to hide

Weather


0- 5 10 15 20 25 30 35+ Temperature / °C

Clouds and Precipitation
Forecast for 2021-01-17 18:00 UTC. Updated 5 hours ago

Ground ~20,000 ft ~40,000 ft Winds

YMEN

Details ICAO YMEN (MEB)
Name Essendon
Region Australia
Timezone Australia/Melbourne (UTC+11.0)
Stats Elevation 280 ft / 85 m (AMSL)
Location -37.729100° 144.902000°
Runways 2
Magnetic Variation 11.586° E

METAR

YMEN 172100Z AUTO 27007KT 9999 // OVC025 15/12 Q1017

Decode

TAF

Not found

Departure Runways

ID Width Length Bearing (true/mag) Surface Threshold Overrun Markings Lighting
08 148 ft / 45 m 6,308 ft / 1,923 m 88.04° / 76.46° ASPHALT 0 ft / 0 m 0 ft / 0 m PREC-APP CENTERLINE EDGE THRESHOLD MALSF
17 148 ft / 45 m 4,936 ft / 1,504 m 177.82° / 166.24° ASPHALT 0 ft / 0 m 0 ft / 0 m PREC-APP CENTERLINE MALSF
26 148 ft / 45 m 6,308 ft / 1,923 m 268.03° / 256.44° ASPHALT 0 ft / 0 m 0 ft / 0 m PREC-APP CENTERLINE EDGE THRESHOLD MALSF
35 148 ft / 45 m 4,936 ft / 1,504 m 357.82° / 346.24° ASPHALT 0 ft / 0 m 282 ft / 86 m PREC-APP CENTERLINE MALSF

YMER

Details ICAO YMER (MIM)
Name Merimbula
Region Australia
Timezone Australia/Sydney (UTC+11.0)
Stats Elevation 7 ft / 2 m (AMSL)
Location -36.908600° 149.901000°
Runways 1
Magnetic Variation 13.376° E

METAR

YMER 172100Z AUTO 00000KT 9999 // NCD 16/12 Q1015

Decode

TAF

Not found

Destination Runways

ID Width Length Bearing (true/mag) Surface Threshold Overrun Markings Lighting
03 98 ft / 30 m 5,261 ft / 1,604 m 33.92° / 20.54° ASPHALT 0 ft / 0 m 0 ft / 0 m PREC-APP EDGE THRESHOLD
21 98 ft / 30 m 5,261 ft / 1,604 m 213.91° / 200.54° ASPHALT 0 ft / 0 m 0 ft / 0 m PREC-APP EDGE THRESHOLD

Popular Alternatives